createdAt,value
2023-02-08T00:01:13.501Z,13.23
2023-02-08T00:06:18.064Z,14.00
2023-02-08T00:11:20.999Z,13.13
2023-02-08T00:16:23.978Z,13.65
2023-02-08T00:21:28.087Z,13.45
2023-02-08T00:26:30.874Z,13.45
2023-02-08T00:31:33.702Z,13.02
2023-02-08T00:36:37.958Z,12.75
2023-02-08T00:41:40.640Z,12.60
2023-02-08T00:46:43.419Z,12.32
2023-02-08T00:51:48.171Z,12.45
2023-02-08T00:56:50.896Z,12.60
2023-02-08T01:01:55.010Z,13.45
2023-02-08T01:07:00.406Z,13.60
2023-02-08T01:12:03.318Z,11.88
2023-02-08T01:17:06.205Z,13.00
2023-02-08T01:22:10.435Z,13.05
2023-02-08T01:27:13.636Z,12.77
2023-02-08T01:32:16.364Z,12.77
2023-02-08T01:37:20.564Z,12.93
2023-02-08T01:42:23.565Z,12.55
2023-02-08T01:47:26.426Z,13.75
2023-02-08T01:52:30.702Z,13.57
2023-02-08T01:57:33.838Z,14.57
2023-02-08T02:02:38.094Z,14.45
2023-02-08T02:07:42.585Z,14.43
2023-02-08T02:12:46.537Z,14.98
2023-02-08T02:17:49.643Z,14.80
2023-02-08T02:23:37.224Z,15.63
2023-02-08T02:29:07.370Z,15.10
2023-02-08T02:34:21.247Z,15.25
2023-02-08T02:39:32.904Z,14.15
2023-02-08T02:44:40.026Z,14.73
2023-02-08T02:49:51.249Z,14.90
2023-02-08T02:54:56.893Z,16.15
2023-02-08T03:00:01.090Z,15.07
2023-02-08T03:05:11.661Z,15.80
2023-02-08T03:10:27.220Z,16.38
2023-02-08T03:15:41.288Z,16.33
2023-02-08T03:20:50.552Z,16.65
2023-02-08T03:26:01.680Z,16.40
2023-02-08T03:31:09.686Z,15.95
2023-02-08T03:36:23.071Z,15.55
2023-02-08T03:41:31.929Z,16.48
2023-02-08T03:46:39.050Z,17.20
2023-02-08T03:51:45.211Z,16.52
2023-02-08T03:56:52.628Z,18.45
2023-02-08T04:01:59.204Z,17.40
2023-02-08T04:07:03.555Z,16.15
2023-02-08T04:12:06.890Z,16.90
2023-02-08T04:17:09.727Z,17.27
2023-02-08T04:22:13.837Z,17.30
2023-02-08T04:27:16.705Z,16.75
2023-02-08T04:32:19.497Z,16.58
2023-02-08T04:37:24.659Z,16.40
2023-02-08T04:42:27.609Z,17.60
2023-02-08T04:47:30.364Z,16.95
2023-02-08T04:52:34.417Z,17.35
2023-02-08T04:57:37.193Z,16.60
2023-02-08T05:02:39.921Z,16.75
2023-02-08T05:07:44.209Z,17.45
2023-02-08T05:12:47.048Z,18.33
2023-02-08T05:17:49.929Z,17.85
2023-02-08T05:22:54.017Z,17.65
2023-02-08T05:27:56.795Z,18.40
2023-02-08T05:32:59.582Z,19.23
2023-02-08T05:38:03.714Z,19.23
2023-02-08T05:43:06.463Z,17.52
2023-02-08T05:48:09.242Z,18.08
2023-02-08T05:53:13.503Z,18.33
2023-02-08T05:58:16.600Z,16.88
2023-02-08T06:03:19.458Z,18.23
2023-02-08T06:08:23.611Z,20.52
2023-02-08T06:13:26.431Z,17.15
2023-02-08T06:18:29.388Z,19.45
2023-02-08T06:23:33.528Z,17.58
2023-02-08T06:28:36.299Z,19.20
2023-02-08T06:33:39.125Z,18.85
2023-02-08T06:38:43.248Z,19.67
2023-02-08T06:43:46.216Z,19.17
2023-02-08T06:48:48.948Z,21.35
2023-02-08T06:53:53.770Z,19.15
2023-02-08T06:58:57.346Z,19.55
2023-02-08T07:04:00.978Z,18.77
2023-02-08T07:09:05.729Z,19.25
2023-02-08T07:14:08.550Z,19.88
2023-02-08T07:19:11.324Z,21.00
2023-02-08T07:24:15.419Z,21.38
2023-02-08T07:29:18.218Z,20.83
2023-02-08T07:34:22.262Z,20.30
2023-02-08T07:39:26.794Z,20.88
2023-02-08T07:44:29.658Z,20.48
2023-02-08T07:49:32.484Z,19.13
2023-02-08T07:54:36.571Z,19.58
2023-02-08T07:59:39.338Z,19.70
2023-02-08T08:04:42.223Z,19.35
2023-02-08T08:09:46.511Z,19.92
2023-02-08T08:14:49.329Z,21.50
2023-02-08T08:19:52.070Z,20.35
2023-02-08T08:24:56.203Z,20.55
2023-02-08T08:29:59.843Z,19.88
2023-02-08T08:35:02.605Z,19.85
2023-02-08T08:40:08.706Z,18.50
2023-02-08T08:45:12.609Z,18.15
2023-02-08T08:50:15.871Z,21.52
2023-02-08T08:55:20.350Z,21.38
2023-02-08T09:00:23.585Z,20.02
2023-02-08T09:05:26.611Z,20.67
2023-02-08T09:10:31.449Z,21.85
2023-02-08T09:15:34.423Z,21.35
2023-02-08T09:20:38.764Z,19.55
2023-02-08T09:25:43.152Z,20.48
2023-02-08T09:30:46.240Z,20.45
2023-02-08T09:35:49.663Z,21.15
2023-02-08T09:41:05.299Z,20.67
2023-02-08T09:46:16.087Z,22.52
2023-02-08T09:51:26.317Z,21.80
2023-02-08T09:56:36.263Z,20.63
2023-02-08T10:01:39.489Z,21.55
2023-02-08T10:06:45.343Z,20.73
2023-02-08T10:12:03.697Z,20.35
2023-02-08T10:17:25.339Z,20.38
2023-02-08T10:22:39.564Z,18.77
2023-02-08T10:27:53.846Z,20.13
2023-02-08T10:33:02.122Z,18.60
2023-02-08T10:38:25.191Z,18.70
2023-02-08T10:43:38.645Z,18.73
2023-02-08T10:49:03.699Z,18.73
2023-02-08T10:54:06.892Z,18.92
2023-02-08T10:59:17.841Z,18.27
2023-02-08T11:04:21.566Z,20.33
2023-02-08T11:09:27.426Z,17.77
2023-02-08T11:14:46.711Z,17.48
2023-02-08T11:19:51.824Z,18.85
2023-02-08T11:24:57.887Z,20.55
2023-02-08T11:30:21.453Z,20.42
2023-02-08T11:35:26.897Z,17.40
2023-02-08T11:40:36.770Z,18.48
2023-02-08T11:45:47.695Z,18.58
2023-02-08T11:56:05.022Z,16.55
2023-02-08T12:01:20.329Z,17.77
2023-02-08T12:06:50.267Z,17.52
2023-02-08T12:12:02.389Z,16.83
2023-02-08T12:17:36.973Z,16.63
2023-02-08T12:22:43.860Z,16.65
2023-02-08T12:27:53.406Z,15.50
2023-02-08T12:33:25.381Z,16.00
2023-02-08T12:39:17.902Z,15.02
2023-02-08T12:44:33.788Z,14.27
2023-02-08T12:49:58.710Z,14.00
2023-02-08T12:55:04.005Z,12.18
2023-02-08T13:00:15.831Z,12.50
2023-02-08T13:05:23.318Z,12.73
2023-02-08T13:10:30.412Z,11.83
2023-02-08T13:15:40.532Z,12.50
2023-02-08T13:20:48.993Z,12.68
2023-02-08T13:31:00.993Z,12.95
2023-02-08T13:36:06.069Z,12.32
2023-02-08T13:41:17.632Z,10.50
2023-02-08T13:46:23.000Z,11.43
2023-02-08T13:52:03.350Z,10.38
2023-02-08T13:57:44.983Z,10.70
2023-02-08T14:03:01.115Z,9.18
2023-02-08T14:08:07.217Z,8.80
2023-02-08T14:13:26.763Z,8.45
2023-02-08T14:18:31.474Z,7.35
2023-02-08T14:23:40.222Z,6.93
2023-02-08T14:28:48.768Z,6.57
2023-02-08T14:33:56.045Z,6.65
2023-02-08T14:39:26.178Z,6.32
2023-02-08T14:44:59.326Z,7.15
2023-02-08T14:50:13.976Z,6.38
2023-02-08T14:55:20.900Z,6.70
2023-02-08T15:00:27.210Z,7.20
2023-02-08T15:05:36.245Z,8.65
2023-02-08T15:10:44.755Z,9.35
2023-02-08T15:15:53.484Z,10.13
2023-02-08T15:26:05.714Z,11.18
2023-02-08T15:31:10.666Z,11.88
2023-02-08T15:36:19.890Z,11.85
2023-02-08T15:41:27.245Z,11.68
2023-02-08T15:46:30.859Z,11.95
2023-02-08T15:51:35.190Z,12.93
2023-02-08T15:56:42.404Z,13.07
2023-02-08T16:01:48.003Z,14.63
2023-02-08T16:06:55.151Z,12.05
2023-02-08T16:12:01.188Z,12.68
2023-02-08T16:17:05.130Z,11.98
2023-02-08T16:22:30.594Z,11.80
2023-02-08T16:27:33.759Z,10.65
2023-02-08T16:32:39.647Z,11.52
2023-02-08T16:37:44.014Z,11.10
2023-02-08T16:42:46.993Z,11.93
2023-02-08T16:47:53.060Z,10.50
2023-02-08T16:53:00.870Z,12.13
2023-02-08T16:58:03.865Z,11.77
2023-02-08T17:03:06.651Z,11.02
2023-02-08T17:08:16.487Z,11.15
2023-02-08T17:13:21.449Z,11.95
2023-02-08T17:18:24.308Z,12.77
2023-02-08T17:23:28.746Z,13.32
2023-02-08T17:28:34.468Z,13.32
2023-02-08T17:33:40.083Z,13.25
2023-02-08T17:38:46.072Z,13.25
2023-02-08T17:43:50.998Z,12.82
2023-02-08T17:48:54.372Z,13.30
2023-02-08T17:53:58.591Z,13.60
2023-02-08T17:59:03.902Z,13.07
2023-02-08T18:04:06.974Z,13.57
2023-02-08T18:09:11.206Z,14.75
2023-02-08T18:14:14.274Z,16.33
2023-02-08T18:19:17.206Z,15.90
2023-02-08T18:24:21.406Z,16.25
2023-02-08T18:29:24.912Z,15.43
2023-02-08T18:34:27.829Z,15.23
2023-02-08T18:39:32.221Z,14.82
2023-02-08T18:44:36.806Z,15.88
2023-02-08T18:49:41.353Z,15.95
2023-02-08T18:54:45.580Z,14.93
2023-02-08T18:59:48.441Z,15.68
2023-02-08T19:04:51.261Z,15.13
2023-02-08T19:09:55.628Z,15.43
2023-02-08T19:15:00.009Z,15.98
2023-02-08T19:20:02.954Z,15.15
2023-02-08T19:25:08.426Z,15.57
2023-02-08T19:30:16.006Z,15.35
2023-02-08T19:35:19.752Z,15.63
2023-02-08T19:40:24.625Z,16.90
2023-02-08T19:45:27.547Z,16.95
2023-02-08T19:50:30.547Z,16.00
2023-02-08T19:55:34.707Z,17.20
2023-02-08T20:00:37.564Z,16.08
2023-02-08T20:05:50.149Z,17.55
2023-02-08T20:11:01.558Z,16.85
2023-02-08T20:16:11.102Z,17.90
2023-02-08T20:21:24.009Z,18.85
2023-02-08T20:26:39.703Z,18.38
2023-02-08T20:31:57.560Z,18.30
2023-02-08T20:37:07.647Z,18.48
2023-02-08T20:42:17.633Z,19.65
2023-02-08T20:47:28.540Z,18.58
2023-02-08T20:52:41.235Z,18.95
2023-02-08T20:57:59.008Z,19.35
2023-02-08T21:03:10.305Z,19.35
2023-02-08T21:08:15.361Z,19.30
2023-02-08T21:13:21.266Z,20.02
2023-02-08T21:18:25.527Z,19.73
2023-02-08T21:23:34.495Z,20.15
2023-02-08T21:28:41.470Z,20.38
2023-02-08T21:33:47.155Z,20.75
2023-02-08T21:38:56.874Z,20.33
2023-02-08T21:44:11.785Z,20.60
2023-02-08T21:49:31.962Z,19.58
2023-02-08T21:54:53.144Z,19.65
2023-02-08T21:59:59.520Z,20.58
2023-02-08T22:05:04.394Z,20.88
2023-02-08T22:10:08.232Z,21.05
2023-02-08T22:15:14.772Z,21.17
2023-02-08T22:20:17.704Z,22.08
2023-02-08T22:25:21.167Z,21.58
2023-02-08T22:30:25.810Z,20.40
2023-02-08T22:35:28.884Z,20.80
2023-02-08T22:40:31.697Z,21.58
2023-02-08T22:45:36.037Z,21.60
2023-02-08T22:50:39.686Z,21.63
2023-02-08T22:55:49.661Z,22.27
2023-02-08T23:00:53.806Z,21.98
2023-02-08T23:05:56.690Z,22.58
2023-02-08T23:11:01.176Z,21.42
2023-02-08T23:16:08.216Z,22.10
2023-02-08T23:21:13.783Z,22.73
2023-02-08T23:26:19.865Z,22.65
2023-02-08T23:31:24.105Z,22.77
2023-02-08T23:36:27.605Z,23.77
2023-02-08T23:41:30.436Z,22.60
2023-02-08T23:46:34.773Z,23.08
2023-02-08T23:51:37.896Z,22.73
2023-02-08T23:56:40.785Z,22.75
